Time;durP1;ratioP1;P1;durP2;ratioP2;P2;SDS_P1;SDS_P2;PMS_P1;PMS_P2;Temp;Humidity;BMP_temperature;BMP_pressure;BME280_temperature;BME280_humidity;BME280_pressure;Samples;Min_cycle;Max_cycle;Signal;HPM_P1;HPM_P2
2023/08/06 00:00:05;;;;;;;36.75;15.85;;;;;;;25.45;100.00;99544.56;4969997;28;20038;-79
2023/08/06 00:02:30;;;;;;;30.08;15.80;;;;;;;25.49;100.00;99539.44;4970464;28;20027;-82
2023/08/06 00:04:56;;;;;;;41.47;14.57;;;;;;;25.42;100.00;99529.38;4970334;28;20031;-79
2023/08/06 00:07:21;;;;;;;39.03;15.35;;;;;;;25.48;100.00;99524.81;4969278;28;20038;-79
2023/08/06 00:09:47;;;;;;;26.13;15.82;;;;;;;25.44;100.00;99509.88;4971055;28;20038;-77
2023/08/06 00:12:12;;;;;;;34.10;15.48;;;;;;;25.44;100.00;99515.38;4971022;28;20030;-81
2023/08/06 00:14:38;;;;;;;31.70;15.23;;;;;;;25.36;100.00;99496.50;4970639;28;20027;-79
2023/08/06 00:17:04;;;;;;;32.10;15.38;;;;;;;25.37;100.00;99495.44;4970178;28;20034;-76
2023/08/06 00:19:30;;;;;;;25.45;14.85;;;;;;;25.41;100.00;99496.63;4970382;28;20030;-77
2023/08/06 00:21:56;;;;;;;25.67;14.48;;;;;;;25.38;100.00;99505.38;4969923;28;20039;-77
2023/08/06 00:24:21;;;;;;;28.55;13.80;;;;;;;25.36;100.00;99507.50;4970276;28;20034;-79
2023/08/06 00:26:47;;;;;;;27.10;16.15;;;;;;;25.34;100.00;99506.94;4969803;28;20031;-77
2023/08/06 00:29:12;;;;;;;26.05;15.25;;;;;;;25.32;100.00;99500.81;4970106;28;20113;-81
2023/08/06 00:31:37;;;;;;;34.13;15.57;;;;;;;25.29;100.00;99493.06;4970139;28;20118;-76
2023/08/06 00:34:03;;;;;;;24.75;15.88;;;;;;;25.29;100.00;99490.31;4969993;28;20518;-78
2023/08/06 00:36:28;;;;;;;27.17;15.30;;;;;;;25.31;100.00;99493.66;4970063;28;20027;-79
2023/08/06 00:38:55;;;;;;;35.92;15.57;;;;;;;25.28;100.00;99492.25;4969655;28;20030;-78
2023/08/06 00:41:21;;;;;;;27.05;15.70;;;;;;;25.25;100.00;99472.63;4970191;28;20027;-76
2023/08/06 00:43:46;;;;;;;26.88;15.32;;;;;;;25.31;100.00;99489.00;4970300;28;20023;-76
2023/08/06 00:46:12;;;;;;;29.60;15.38;;;;;;;25.30;100.00;99490.06;4969953;28;20085;-77
2023/08/06 00:48:37;;;;;;;31.95;15.55;;;;;;;25.29;100.00;99490.31;4969650;28;20031;-77
2023/08/06 00:51:03;;;;;;;26.73;16.17;;;;;;;25.26;100.00;99499.06;4969815;28;20019;-77
2023/08/06 00:53:28;;;;;;;30.23;15.85;;;;;;;25.36;100.00;99499.25;4971258;28;20034;-77
2023/08/06 00:55:54;;;;;;;40.03;17.65;;;;;;;25.39;100.00;99498.75;4973531;28;20022;-77
2023/08/06 00:58:20;;;;;;;32.72;16.73;;;;;;;25.45;100.00;99492.25;4973555;28;20027;-76
2023/08/06 01:00:45;;;;;;;34.15;16.23;;;;;;;25.41;100.00;99485.59;4973542;28;20112;-76
2023/08/06 01:03:11;;;;;;;41.70;16.02;;;;;;;25.54;100.00;99490.78;4973328;28;20033;-77
2023/08/06 01:05:36;;;;;;;25.80;15.43;;;;;;;25.51;100.00;99480.28;4972974;28;20058;-78
2023/08/06 01:08:21;;;;;;;23.85;14.50;;;;;;;25.56;100.00;99488.66;4973536;28;20031;-76
2023/08/06 01:11:10;;;;;;;30.13;13.95;;;;;;;25.50;100.00;99481.38;4973304;28;20026;-77
2023/08/06 01:13:49;;;;;;;25.33;15.05;;;;;;;25.51;100.00;99480.28;4972897;28;20051;-77
2023/08/06 01:16:17;;;;;;;27.77;16.30;;;;;;;25.50;100.00;99473.13;4973023;28;20034;-76
2023/08/06 01:18:46;;;;;;;27.05;15.50;;;;;;;25.48;100.00;99466.97;4972943;28;20033;-80
2023/08/06 01:21:15;;;;;;;26.10;15.45;;;;;;;25.47;100.00;99451.56;4972689;28;20037;-77
2023/08/06 01:23:45;;;;;;;33.85;16.75;;;;;;;25.50;100.00;99450.25;4972810;28;20023;-78
2023/08/06 01:26:10;;;;;;;29.38;15.80;;;;;;;25.51;100.00;99451.91;4972949;28;20462;-77
2023/08/06 01:28:52;;;;;;;25.27;17.20;;;;;;;25.51;100.00;99441.72;4972489;28;20090;-78
2023/08/06 01:31:26;;;;;;;43.17;19.60;;;;;;;25.51;100.00;99441.72;4972796;28;20027;-77
2023/08/06 01:33:53;;;;;;;26.23;15.73;;;;;;;25.49;100.00;99438.41;4972674;28;20046;-80
2023/08/06 01:36:20;;;;;;;32.60;17.10;;;;;;;25.47;100.00;99429.53;4972443;28;20098;-79
2023/08/06 01:38:46;;;;;;;28.23;17.90;;;;;;;25.48;100.00;99425.69;4972365;28;20482;-78
2023/08/06 01:41:11;;;;;;;29.30;17.90;;;;;;;25.35;100.00;99415.03;4972341;28;20034;-77
2023/08/06 01:43:37;;;;;;;24.02;16.52;;;;;;;25.41;100.00;99414.03;4972390;28;20105;-77
2023/08/06 01:46:02;;;;;;;23.27;16.20;;;;;;;25.42;100.00;99412.91;4972354;28;20035;-77
2023/08/06 01:48:28;;;;;;;29.58;16.65;;;;;;;25.43;100.00;99401.66;4972331;28;20023;-78
2023/08/06 01:50:53;;;;;;;25.67;16.65;;;;;;;25.42;100.00;99388.97;4972145;28;20043;-77
2023/08/06 01:53:19;;;;;;;25.92;16.15;;;;;;;25.46;100.00;99411.34;4972112;28;20113;-78
2023/08/06 01:55:50;;;;;;;25.90;16.42;;;;;;;25.41;100.00;99397.50;4972105;28;20039;-77
2023/08/06 01:58:15;;;;;;;22.83;14.73;;;;;;;25.39;100.00;99410.66;4972166;28;20045;-80
2023/08/06 02:00:41;;;;;;;31.77;17.55;;;;;;;25.33;100.00;99411.66;4970735;28;20479;-77
2023/08/06 02:03:06;;;;;;;35.40;16.00;;;;;;;25.35;100.00;99407.56;4971549;28;20487;-79
2023/08/06 02:05:32;;;;;;;29.23;16.55;;;;;;;25.33;100.00;99403.41;4971944;28;20027;-77
2023/08/06 02:07:57;;;;;;;25.27;16.45;;;;;;;25.34;100.00;99397.66;4971859;28;20395;-80
2023/08/06 02:10:23;;;;;;;27.75;17.35;;;;;;;25.24;100.00;99396.66;4972250;28;20033;-77
2023/08/06 02:12:48;;;;;;;32.45;16.60;;;;;;;25.24;100.00;99386.47;4971914;28;20027;-78
2023/08/06 02:15:14;;;;;;;27.45;17.45;;;;;;;25.27;100.00;99397.00;4972076;28;20058;-77
2023/08/06 02:17:39;;;;;;;41.90;17.40;;;;;;;25.25;100.00;99392.81;4972088;28;20062;-80
2023/08/06 02:20:05;;;;;;;32.47;16.77;;;;;;;25.23;100.00;99394.97;4971721;28;20370;-78
2023/08/06 02:22:31;;;;;;;35.05;17.65;;;;;;;25.32;100.00;99390.72;4971699;28;20070;-79
2023/08/06 02:24:56;;;;;;;24.23;15.93;;;;;;;25.34;100.00;99374.81;4971808;28;20525;-78
2023/08/06 02:27:22;;;;;;;25.27;15.63;;;;;;;25.29;100.00;99371.97;4971685;28;20037;-78
2023/08/06 02:29:47;;;;;;;29.80;15.57;;;;;;;25.32;100.00;99374.22;4971461;28;20054;-78
2023/08/06 02:32:12;;;;;;;49.08;17.67;;;;;;;25.35;100.00;99370.97;4971964;28;20018;-79
2023/08/06 02:34:38;;;;;;;24.95;14.98;;;;;;;25.31;100.00;99350.53;4971737;28;20049;-77
2023/08/06 02:37:04;;;;;;;20.75;15.02;;;;;;;25.33;100.00;99353.88;4971599;28;20030;-77
2023/08/06 02:39:29;;;;;;;19.13;13.48;;;;;;;25.34;100.00;99358.28;4971829;28;20031;-80
2023/08/06 02:41:54;;;;;;;26.75;15.10;;;;;;;25.33;100.00;99357.44;4971575;28;20397;-80
2023/08/06 02:44:20;;;;;;;22.88;15.90;;;;;;;25.35;100.00;99360.78;4971361;28;20566;-79
2023/08/06 02:46:45;;;;;;;32.47;16.42;;;;;;;25.36;100.00;99365.22;4972110;28;20022;-79
2023/08/06 02:49:11;;;;;;;22.67;15.75;;;;;;;25.28;100.00;99360.13;4970354;28;20035;-80
2023/08/06 02:51:36;;;;;;;24.38;15.90;;;;;;;25.32;100.00;99360.44;4973973;28;20077;-80
2023/08/06 02:54:02;;;;;;;27.02;15.45;;;;;;;25.25;100.00;99360.63;4973059;28;20510;-78
2023/08/06 02:56:27;;;;;;;27.42;17.85;;;;;;;25.19;100.00;99358.88;4973082;28;20019;-78
2023/08/06 02:58:52;;;;;;;32.35;16.50;;;;;;;25.18;100.00;99370.13;4973068;28;20027;-79
2023/08/06 03:01:18;;;;;;;34.17;16.13;;;;;;;25.20;100.00;99382.56;4984023;28;20039;-84
2023/08/06 03:03:43;;;;;;;28.60;15.95;;;;;;;25.22;100.00;99385.06;4994110;28;20069;-80
2023/08/06 03:06:09;;;;;;;29.90;14.77;;;;;;;25.15;100.00;99382.47;4985661;28;20049;-79
2023/08/06 03:08:35;;;;;;;26.10;16.30;;;;;;;25.22;100.00;99390.56;4978792;28;20126;-78
2023/08/06 03:11:00;;;;;;;28.90;17.17;;;;;;;25.18;100.00;99393.00;4973456;28;20039;-78
2023/08/06 03:13:25;;;;;;;42.63;17.60;;;;;;;25.21;100.00;99386.97;4974198;28;20031;-77
2023/08/06 03:15:58;;;;;;;27.08;15.95;;;;;;;25.24;100.00;99396.66;4972838;28;20455;-77
2023/08/06 03:18:25;;;;;;;45.72;19.05;;;;;;;25.24;100.00;99403.00;4972464;28;20417;-78
2023/08/06 03:20:51;;;;;;;31.73;18.65;;;;;;;25.25;100.00;99406.59;4972157;28;20061;-78
2023/08/06 03:23:17;;;;;;;45.63;17.85;;;;;;;25.37;100.00;99407.34;4971663;28;20066;-78
2023/08/06 03:25:43;;;;;;;38.40;17.40;;;;;;;25.30;100.00;99407.50;4971325;28;20491;-79
2023/08/06 03:28:09;;;;;;;25.55;16.48;;;;;;;25.30;100.00;99396.50;4971251;28;20094;-78
2023/08/06 03:30:34;;;;;;;27.27;15.95;;;;;;;25.38;100.00;99404.31;4970980;28;20065;-78
2023/08/06 03:33:00;;;;;;;32.85;16.27;;;;;;;25.42;100.00;99404.66;4972324;28;20030;-78
2023/08/06 03:35:25;;;;;;;29.05;17.40;;;;;;;25.43;100.00;99395.31;4970976;28;20676;-78
2023/08/06 03:37:51;;;;;;;28.23;15.75;;;;;;;25.44;100.00;99399.75;4971349;28;20737;-79
2023/08/06 03:40:16;;;;;;;40.33;17.25;;;;;;;25.38;100.00;99385.06;4971232;28;20026;-78
2023/08/06 03:42:41;;;;;;;52.45;19.98;;;;;;;25.54;100.00;99396.34;4971344;28;20062;-77
2023/08/06 03:45:07;;;;;;;39.75;18.92;;;;;;;25.58;100.00;99397.50;4970967;28;20081;-77
2023/08/06 03:47:33;;;;;;;33.47;19.65;;;;;;;25.59;100.00;99404.69;4971344;28;20365;-78
2023/08/06 03:49:58;;;;;;;45.47;19.70;;;;;;;25.60;100.00;99409.09;4970756;28;20019;-78
2023/08/06 03:52:24;;;;;;;59.35;19.15;;;;;;;25.62;100.00;99405.03;4970949;28;20479;-79
2023/08/06 03:54:49;;;;;;;33.03;20.35;;;;;;;25.68;100.00;99406.78;4971045;28;20049;-78
2023/08/06 03:57:15;;;;;;;32.15;19.08;;;;;;;25.78;100.00;99395.03;4970722;28;20023;-79
2023/08/06 03:59:41;;;;;;;41.78;19.30;;;;;;;25.80;100.00;99402.00;4970699;28;20026;-79
2023/08/06 04:02:06;;;;;;;36.63;19.58;;;;;;;25.78;100.00;99393.13;4969637;28;20039;-78
2023/08/06 04:04:32;;;;;;;34.72;17.95;;;;;;;25.79;100.00;99397.56;4971061;28;20039;-78
2023/08/06 04:06:57;;;;;;;30.00;18.02;;;;;;;25.74;100.00;99394.75;4971204;28;20038;-78
2023/08/06 04:09:22;;;;;;;35.75;18.95;;;;;;;25.74;100.00;99380.97;4971201;28;20030;-79
2023/08/06 04:11:48;;;;;;;50.70;19.95;;;;;;;25.77;100.00;99385.97;4970524;28;20027;-78
2023/08/06 04:14:13;;;;;;;34.30;19.48;;;;;;;25.83;100.00;99384.97;4971275;28;20038;-78
2023/08/06 04:16:39;;;;;;;38.58;19.75;;;;;;;25.84;100.00;99381.09;4971075;28;20442;-78
2023/08/06 04:19:04;;;;;;;35.38;19.13;;;;;;;25.83;100.00;99373.94;4970424;28;20463;-78
2023/08/06 04:21:30;;;;;;;39.33;17.75;;;;;;;25.70;100.00;99363.28;4970056;28;20031;-78
2023/08/06 04:23:56;;;;;;;45.88;19.45;;;;;;;25.75;100.00;99371.59;4970499;28;20094;-80
2023/08/06 04:26:22;;;;;;;50.58;19.63;;;;;;;25.86;100.00;99386.38;4970742;28;20529;-79
2023/08/06 04:28:48;;;;;;;39.55;19.02;;;;;;;25.89;100.00;99366.56;4974321;28;20035;-79
2023/08/06 04:31:14;;;;;;;33.75;14.55;;;;;;;25.92;100.00;99372.41;4973805;28;20057;-80
2023/08/06 04:33:39;;;;;;;24.77;14.40;;;;;;;25.94;100.00;99375.75;4973889;28;20026;-80
2023/08/06 04:36:05;;;;;;;28.08;13.73;;;;;;;25.93;100.00;99367.75;4973861;28;20093;-80
2023/08/06 04:38:30;;;;;;;23.52;12.07;;;;;;;25.92;100.00;99377.94;4973684;28;20063;-80
2023/08/06 04:40:56;;;;;;;21.70;13.38;;;;;;;25.92;100.00;99364.16;4973475;28;20846;-81
2023/08/06 04:43:21;;;;;;;22.00;11.45;;;;;;;25.91;100.00;99370.75;4972982;28;20122;-81
2023/08/06 04:45:50;;;;;;;29.02;13.90;;;;;;;25.85;100.00;99371.75;4974175;28;20042;-78
2023/08/06 04:48:15;;;;;;;23.20;12.15;;;;;;;25.91;100.00;99367.13;4973410;28;20114;-79
2023/08/06 04:50:45;;;;;;;18.48;13.05;;;;;;;25.90;100.00;99358.03;4973299;28;20027;-80
2023/08/06 04:53:11;;;;;;;21.27;12.77;;;;;;;25.86;100.00;99340.38;4973044;28;20514;-83
2023/08/06 04:55:36;;;;;;;19.35;11.38;;;;;;;25.91;100.00;99348.69;4973178;28;20058;-76
2023/08/06 04:58:02;;;;;;;20.10;13.00;;;;;;;25.86;100.00;99323.84;4973077;28;20030;-78
2023/08/06 05:00:27;;;;;;;23.38;12.48;;;;;;;25.86;100.00;99318.34;4973377;28;20051;-82
2023/08/06 05:02:53;;;;;;;24.00;12.00;;;;;;;25.96;100.00;99337.72;4973035;28;20030;-81
2023/08/06 05:05:18;;;;;;;24.70;12.93;;;;;;;26.03;100.00;99332.03;4973218;28;20462;-83
2023/08/06 05:07:48;;;;;;;16.83;10.63;;;;;;;26.10;100.00;99337.34;4973719;28;20042;-85
2023/08/06 05:10:13;;;;;;;29.73;12.20;;;;;;;26.04;100.00;99328.19;4974812;28;20038;-84
2023/08/06 05:12:38;;;;;;;32.22;12.25;;;;;;;26.16;100.00;99328.09;4973455;28;20022;-88
2023/08/06 05:15:04;;;;;;;32.88;12.98;;;;;;;26.18;100.00;99320.38;4974203;28;20035;-88
2023/08/06 05:17:30;;;;;;;18.25;11.30;;;;;;;26.29;100.00;99322.19;4974377;28;20034;-84
2023/08/06 05:19:55;;;;;;;35.25;10.88;;;;;;;26.36;100.00;99322.84;4974455;28;20185;-77
2023/08/06 05:22:21;;;;;;;29.90;12.60;;;;;;;26.34;100.00;99325.00;4970762;28;20039;-85
2023/08/06 05:24:46;;;;;;;18.40;11.32;;;;;;;26.23;100.00;99320.47;4973806;28;20093;-87
2023/08/06 05:27:12;;;;;;;25.10;12.45;;;;;;;26.18;100.00;99321.22;4972668;28;20088;-80
2023/08/06 05:29:37;;;;;;;31.88;13.73;;;;;;;26.25;100.00;99326.53;4972149;28;20579;-81
2023/08/06 05:32:06;;;;;;;26.33;11.73;;;;;;;26.23;100.00;99306.69;4973764;28;20043;-84
2023/08/06 05:34:31;;;;;;;24.08;13.07;;;;;;;26.38;100.00;99321.47;4973089;28;20525;-88
2023/08/06 05:36:57;;;;;;;31.23;11.18;;;;;;;26.42;100.00;99321.78;4973642;28;20023;-86
2023/08/06 05:39:22;;;;;;;16.30;10.70;;;;;;;26.42;100.00;99313.53;4973565;28;20502;-88
2023/08/06 05:41:48;;;;;;;20.27;10.43;;;;;;;26.42;100.00;99321.78;4973998;28;20031;-88
2023/08/06 05:44:13;;;;;;;25.83;10.85;;;;;;;26.38;100.00;99309.59;4974761;28;20033;-83
2023/08/06 05:46:40;;;;;;;22.13;10.93;;;;;;;26.41;100.00;99309.94;4972890;28;20522;-86
2023/08/06 05:49:05;;;;;;;21.98;11.27;;;;;;;26.48;100.00;99305.00;4973181;28;20045;-83
2023/08/06 05:51:31;;;;;;;16.75;9.30;;;;;;;26.52;100.00;99297.06;4972476;28;20471;-81
2023/08/06 05:53:56;;;;;;;23.55;11.55;;;;;;;26.62;100.00;99310.97;4972709;28;20407;-81
2023/08/06 05:56:22;;;;;;;25.85;11.15;;;;;;;26.66;100.00;99323.16;4973648;28;20029;-80
2023/08/06 05:58:47;;;;;;;34.40;11.27;;;;;;;26.69;100.00;99306.06;4973622;28;20058;-84
2023/08/06 06:01:13;;;;;;;19.17;10.40;;;;;;;26.74;99.12;99303.34;4971870;28;20050;-88
2023/08/06 06:03:38;;;;;;;28.73;11.75;;;;;;;26.82;99.23;99308.41;4933792;29;20058;-82
2023/08/06 06:06:04;;;;;;;14.70;8.27;;;;;;;26.86;97.70;99304.03;4950668;29;20926;-85
2023/08/06 06:08:29;;;;;;;21.75;10.35;;;;;;;26.79;95.99;99292.34;4952697;29;20082;-88
2023/08/06 06:10:55;;;;;;;20.05;9.88;;;;;;;26.89;97.08;99306.28;4950633;29;20141;-81
2023/08/06 06:13:20;;;;;;;30.85;9.70;;;;;;;26.90;97.30;99296.91;4935463;29;20092;-86
2023/08/06 06:15:47;;;;;;;22.52;9.35;;;;;;;26.93;96.42;99312.09;4951546;29;20088;-83
2023/08/06 06:18:13;;;;;;;26.25;9.63;;;;;;;26.98;96.09;99303.84;4949922;29;20050;-82
2023/08/06 06:20:38;;;;;;;12.73;9.13;;;;;;;27.03;93.83;99324.03;4949635;29;20106;-84
2023/08/06 06:23:04;;;;;;;19.85;9.80;;;;;;;26.99;94.07;99300.00;4949675;29;20053;-88
2023/08/06 06:25:29;;;;;;;17.70;9.52;;;;;;;27.10;92.48;99329.34;4950904;28;20032;-85
2023/08/06 06:27:55;;;;;;;36.63;10.98;;;;;;;27.01;92.66;99312.44;4950158;28;20114;-84
2023/08/06 06:30:20;;;;;;;25.52;9.48;;;;;;;27.08;93.50;99315.00;4950445;29;20039;-87
2023/08/06 06:32:46;;;;;;;29.40;9.40;;;;;;;27.13;92.26;99303.97;4950722;29;20491;-86
2023/08/06 06:35:12;;;;;;;17.23;8.75;;;;;;;27.11;92.58;99297.91;4966841;28;20117;-77
2023/08/06 06:37:37;;;;;;;29.75;9.55;;;;;;;27.20;91.82;99307.34;4971574;28;20035;-80
2023/08/06 06:40:03;;;;;;;23.45;9.23;;;;;;;27.15;92.64;99309.25;4973464;28;20022;-86
2023/08/06 06:42:29;;;;;;;24.08;9.90;;;;;;;27.21;93.01;99324.75;4974302;28;20029;-84
2023/08/06 06:44:54;;;;;;;19.98;9.38;;;;;;;27.22;93.96;99315.34;4980520;28;20066;-85
2023/08/06 06:47:20;;;;;;;19.00;8.90;;;;;;;27.17;92.61;99316.16;4972254;28;20102;-87
2023/08/06 06:49:46;;;;;;;21.27;9.00;;;;;;;27.03;93.09;99296.44;4972304;28;20102;-85
2023/08/06 06:52:11;;;;;;;31.67;9.80;;;;;;;27.05;94.39;99304.47;4972542;28;20078;-87
2023/08/06 06:54:37;;;;;;;20.95;10.07;;;;;;;27.05;95.87;99298.97;4972118;28;20475;-87
2023/08/06 06:57:02;;;;;;;33.50;9.85;;;;;;;27.02;93.72;99305.00;4972324;28;20031;-87
2023/08/06 06:59:28;;;;;;;22.88;9.45;;;;;;;26.97;94.66;99308.53;4971423;28;20019;-86
2023/08/06 07:01:53;;;;;;;24.52;10.02;;;;;;;27.06;95.76;99310.84;4971789;28;20034;-86
2023/08/06 07:04:19;;;;;;;20.30;9.25;;;;;;;27.02;94.94;99305.84;4971800;28;20026;-87
2023/08/06 07:06:44;;;;;;;34.28;10.00;;;;;;;26.97;95.10;99311.28;4972321;28;20122;-86
2023/08/06 07:09:10;;;;;;;18.52;9.43;;;;;;;26.93;96.07;99301.91;4972353;28;20117;-86
2023/08/06 07:11:35;;;;;;;27.10;9.15;;;;;;;26.90;96.32;99302.44;4971707;28;20118;-86
2023/08/06 07:14:01;;;;;;;24.38;9.57;;;;;;;26.99;96.97;99314.66;4972459;28;20027;-86
2023/08/06 07:16:27;;;;;;;22.20;8.73;;;;;;;26.92;94.62;99316.78;4972031;28;20037;-87
2023/08/06 07:18:53;;;;;;;24.60;9.93;;;;;;;26.92;94.66;99311.25;4987658;28;20514;-86
2023/08/06 07:21:20;;;;;;;20.55;7.88;;;;;;;26.93;94.32;99301.06;4972438;28;20050;-86
2023/08/06 07:23:46;;;;;;;16.05;8.60;;;;;;;26.99;93.49;99295.31;4971694;28;20644;-87
2023/08/06 07:26:11;;;;;;;19.17;7.93;;;;;;;27.06;93.16;99303.41;4972841;28;20023;-87
2023/08/06 07:28:36;;;;;;;13.20;7.22;;;;;;;27.08;92.09;99297.59;4972784;28;20054;-87
2023/08/06 07:31:03;;;;;;;20.25;8.55;;;;;;;27.13;92.25;99305.91;4972081;28;20054;-87
2023/08/06 07:33:29;;;;;;;21.50;7.90;;;;;;;27.19;93.17;99299.31;4971972;28;20058;-88
2023/08/06 07:35:54;;;;;;;17.33;8.57;;;;;;;27.19;93.67;99293.78;4972895;28;20121;-88
2023/08/06 07:38:21;;;;;;;27.08;8.73;;;;;;;27.11;93.29;99286.84;4972485;28;21118;-87
2023/08/06 07:40:46;;;;;;;28.48;9.35;;;;;;;27.22;94.41;99302.38;4988544;28;20031;-88
2023/08/06 07:43:12;;;;;;;19.13;8.85;;;;;;;27.20;93.66;99301.00;4974269;28;20026;-86
2023/08/06 07:45:37;;;;;;;16.02;9.02;;;;;;;27.12;93.64;99305.09;4976562;28;20109;-85
2023/08/06 07:48:03;;;;;;;19.40;9.60;;;;;;;27.15;95.19;99309.25;4985500;28;20034;-88
2023/08/06 07:50:29;;;;;;;23.95;9.35;;;;;;;27.13;95.12;99303.97;4997789;28;20039;-87
2023/08/06 07:52:54;;;;;;;17.90;9.02;;;;;;;27.33;94.13;99317.94;4997781;28;20058;-86
2023/08/06 07:55:20;;;;;;;32.00;9.63;;;;;;;27.39;93.05;99313.28;4998360;28;20030;-87
2023/08/06 07:57:45;;;;;;;15.00;7.88;;;;;;;27.48;92.91;99311.72;4993786;28;20042;-87
2023/08/06 08:00:11;;;;;;;18.45;7.70;;;;;;;27.45;92.95;99292.91;4991699;28;20556;-87
2023/08/06 08:02:36;;;;;;;25.88;9.32;;;;;;;27.56;92.13;99294.63;4983161;28;20486;-88
2023/08/06 08:05:02;;;;;;;19.20;7.57;;;;;;;27.61;90.12;99307.66;4977552;28;20027;-88
2023/08/06 08:07:30;;;;;;;21.27;7.68;;;;;;;27.58;90.46;99302.66;4977878;28;20497;-86
2023/08/06 08:09:56;;;;;;;16.73;8.13;;;;;;;27.67;91.23;99312.13;4977328;28;20035;-87
2023/08/06 08:12:21;;;;;;;27.15;8.65;;;;;;;27.85;90.59;99314.41;4977627;28;20045;-87
2023/08/06 08:14:47;;;;;;;15.95;8.95;;;;;;;27.73;87.79;99289.78;4977141;28;20027;-86
2023/08/06 08:17:12;;;;;;;14.50;7.80;;;;;;;27.85;87.25;99315.25;4976069;28;20031;-87
2023/08/06 08:19:39;;;;;;;12.50;7.18;;;;;;;27.88;86.11;99325.75;4993022;28;20023;-89
2023/08/06 08:22:05;;;;;;;23.27;7.50;;;;;;;27.79;86.37;99332.91;4978884;28;20039;-87
2023/08/06 08:24:30;;;;;;;19.67;7.97;;;;;;;27.84;86.83;99316.34;4977927;28;20035;-88
2023/08/06 08:26:56;;;;;;;11.73;6.95;;;;;;;27.80;85.83;99301.38;4976138;28;20092;-88
2023/08/06 08:29:22;;;;;;;25.98;6.97;;;;;;;27.90;85.68;99297.84;4976792;28;20114;-88
2023/08/06 08:31:50;;;;;;;18.13;7.40;;;;;;;28.00;83.91;99312.56;4976246;28;20093;-88
2023/08/06 08:34:16;;;;;;;23.52;8.80;;;;;;;28.07;84.52;99317.88;4976545;28;20045;-89
2023/08/06 08:36:42;;;;;;;16.52;6.43;;;;;;;28.04;81.67;99294.34;4984703;28;20114;-89
2023/08/06 08:39:08;;;;;;;20.65;7.43;;;;;;;28.10;81.24;99307.06;4982414;28;20489;-88
2023/08/06 08:41:35;;;;;;;10.93;6.50;;;;;;;28.20;81.03;99299.91;4976119;28;20047;-87
2023/08/06 08:44:00;;;;;;;15.43;6.10;;;;;;;28.01;79.77;99269.97;4976312;28;20411;-87
2023/08/06 08:46:27;;;;;;;19.73;7.28;;;;;;;27.97;81.62;99290.16;4976077;28;20038;-89
2023/08/06 08:48:54;;;;;;;11.32;6.93;;;;;;;27.93;82.48;99259.44;4976508;28;20038;-87
2023/08/06 08:51:20;;;;;;;15.35;7.88;;;;;;;28.04;82.28;99274.16;4976228;28;20034;-88
2023/08/06 08:53:49;;;;;;;13.02;7.53;;;;;;;28.15;80.91;99273.09;4976205;28;20129;-87
2023/08/06 08:56:14;;;;;;;20.23;7.45;;;;;;;28.20;81.56;99262.03;4976433;28;20498;-88
2023/08/06 08:58:40;;;;;;;18.05;7.10;;;;;;;28.30;81.60;99272.31;4976324;28;20031;-89
2023/08/06 09:01:07;;;;;;;15.50;7.07;;;;;;;28.29;79.45;99292.75;4976401;28;20046;-87
2023/08/06 09:03:34;;;;;;;15.05;7.40;;;;;;;28.19;80.15;99263.16;4975746;28;20053;-87
2023/08/06 09:06:02;;;;;;;10.07;6.10;;;;;;;28.29;79.30;99284.47;4975855;28;20058;-88
2023/08/06 09:08:33;;;;;;;15.15;6.57;;;;;;;28.35;79.75;99299.97;4976152;28;20720;-88
2023/08/06 09:11:02;;;;;;;23.08;6.32;;;;;;;28.26;79.45;99279.47;4975972;28;20388;-88
2023/08/06 09:13:28;;;;;;;14.13;6.82;;;;;;;28.18;80.49;99283.63;4974236;28;20559;-88
2023/08/06 09:15:53;;;;;;;17.60;6.75;;;;;;;28.31;80.75;99290.56;4975713;28;20031;-88
2023/08/06 09:18:29;;;;;;;16.10;7.35;;;;;;;28.20;79.76;99266.75;4977717;28;20113;-87
2023/08/06 09:20:54;;;;;;;10.75;7.07;;;;;;;28.12;78.14;99250.69;4976735;28;20042;-88
2023/08/06 09:23:20;;;;;;;15.45;7.00;;;;;;;28.16;80.27;99257.34;4975492;28;20043;-89
2023/08/06 09:25:46;;;;;;;20.63;6.93;;;;;;;28.26;79.06;99260.13;4975595;28;20023;-89
2023/08/06 09:28:11;;;;;;;12.98;6.38;;;;;;;28.32;78.51;99242.44;4990779;28;20498;-88
2023/08/06 09:30:38;;;;;;;12.00;5.95;;;;;;;28.47;77.12;99259.88;4976155;28;20027;-86
2023/08/06 09:33:10;;;;;;;12.13;6.53;;;;;;;28.57;76.92;99250.78;4977189;28;20049;-88
2023/08/06 09:35:35;;;;;;;17.17;6.50;;;;;;;28.55;77.44;99239.16;4977811;28;20030;-88
2023/08/06 09:38:10;;;;;;;13.82;6.80;;;;;;;28.53;76.95;99225.59;4984608;28;20033;-88
2023/08/06 09:40:36;;;;;;;14.60;6.35;;;;;;;28.78;77.41;99244.16;4992148;28;20026;-87
2023/08/06 09:43:02;;;;;;;21.40;6.70;;;;;;;28.92;77.92;99245.28;4991595;28;20031;-87
2023/08/06 09:45:31;;;;;;;19.58;7.25;;;;;;;28.94;76.06;99245.84;4986952;28;20406;-87
2023/08/06 09:47:57;;;;;;;20.80;7.72;;;;;;;28.92;76.26;99242.53;4986362;28;20030;-87
2023/08/06 09:50:28;;;;;;;13.45;7.07;;;;;;;28.86;75.67;99215.94;4993717;28;20023;-88
2023/08/06 09:52:54;;;;;;;13.27;6.78;;;;;;;29.01;74.11;99215.94;4993596;28;20367;-86
2023/08/06 09:55:22;;;;;;;19.98;6.80;;;;;;;29.08;74.49;99235.03;4990931;28;20026;-86
2023/08/06 09:57:47;;;;;;;16.70;7.60;;;;;;;29.07;74.62;99231.44;4992565;28;20031;-87
2023/08/06 10:00:13;;;;;;;12.23;6.65;;;;;;;29.08;74.03;99224.75;4992113;28;20057;-87
2023/08/06 10:02:39;;;;;;;11.63;5.72;;;;;;;29.12;75.39;99231.41;4996074;28;20043;-85
2023/08/06 10:05:07;;;;;;;17.70;5.72;;;;;;;29.11;76.28;99226.16;4996634;28;20034;-88
2023/08/06 10:07:34;;;;;;;20.45;6.68;;;;;;;29.08;77.87;99223.97;4995874;28;20038;-89
2023/08/06 10:10:00;;;;;;;17.02;6.65;;;;;;;29.07;75.25;99220.34;4996115;28;20046;-90
2023/08/06 10:12:28;;;;;;;12.00;7.05;;;;;;;29.14;75.87;99217.31;4995764;28;20094;-89
2023/08/06 10:14:57;;;;;;;13.80;5.63;;;;;;;29.29;75.19;99208.16;4993334;28;20101;-90
2023/08/06 10:17:27;;;;;;;24.13;5.85;;;;;;;29.30;73.72;99212.56;4984977;28;20092;-88
2023/08/06 10:19:55;;;;;;;18.27;7.63;;;;;;;29.43;73.33;99209.22;4980990;28;20487;-88
2023/08/06 10:22:21;;;;;;;35.58;7.63;;;;;;;29.39;73.52;99174.84;4989570;28;20064;-88
2023/08/06 10:24:49;;;;;;;18.17;6.13;;;;;;;29.58;73.85;99201.66;4991419;28;20023;-86
2023/08/06 10:27:30;;;;;;;12.88;6.15;;;;;;;29.58;72.54;99187.81;4988084;28;20566;-88
2023/08/06 10:30:16;;;;;;;28.73;6.80;;;;;;;29.54;71.99;99189.47;4991419;28;20085;-88
2023/08/06 10:32:48;;;;;;;14.07;6.88;;;;;;;29.51;72.63;99189.25;4989470;28;20043;-87
2023/08/06 10:35:29;;;;;;;16.27;6.35;;;;;;;29.45;74.87;99195.88;4986384;28;20122;-87
2023/08/06 10:37:59;;;;;;;12.85;5.82;;;;;;;29.42;73.61;99186.22;4989693;28;20038;-87
2023/08/06 10:40:25;;;;;;;14.15;6.55;;;;;;;29.59;74.15;99180.34;4991994;28;20023;-88
2023/08/06 10:42:51;;;;;;;9.68;5.38;;;;;;;29.47;73.00;99174.28;4990803;28;20030;-88
2023/08/06 10:45:18;;;;;;;14.32;6.38;;;;;;;29.51;74.36;99178.16;4989037;28;20050;-89
2023/08/06 10:47:45;;;;;;;26.75;7.32;;;;;;;29.68;73.21;99175.84;4988866;28;20091;-86
2023/08/06 10:50:19;;;;;;;23.77;7.03;;;;;;;29.49;72.23;99158.19;4990996;28;20015;-89
2023/08/06 10:52:46;;;;;;;10.05;6.38;;;;;;;29.42;73.42;99164.03;4990052;28;20027;-88
2023/08/06 10:55:11;;;;;;;18.30;6.25;;;;;;;29.66;74.32;99183.63;4989090;28;20023;-89
2023/08/06 10:57:37;;;;;;;17.40;6.18;;;;;;;29.75;73.52;99173.63;4990639;28;20094;-88
2023/08/06 11:00:08;;;;;;;16.73;5.60;;;;;;;29.83;73.34;99163.88;4989657;28;20054;-87
2023/08/06 11:02:35;;;;;;;25.15;6.40;;;;;;;29.97;72.62;99154.66;4987705;28;20023;-87
2023/08/06 11:05:08;;;;;;;24.33;6.97;;;;;;;30.05;71.65;99162.38;4985883;28;20410;-87
2023/08/06 11:07:37;;;;;;;17.05;5.97;;;;;;;30.08;71.66;99163.75;4986820;28;20031;-87
2023/08/06 11:10:10;;;;;;;17.02;6.43;;;;;;;29.82;72.61;99165.81;4987078;28;20065;-87
2023/08/06 11:12:36;;;;;;;14.50;5.88;;;;;;;29.97;73.76;99184.31;4987691;28;20546;-89